Time;durP1;ratioP1;P1;durP2;ratioP2;P2;SDS_P1;SDS_P2;PMS_P1;PMS_P2;Temp;Humidity;BMP_temperature;BMP_pressure;BME280_temperature;BME280_humidity;BME280_pressure;Samples;Min_cycle;Max_cycle;Signal;HPM_P1;HPM_P2
2023/10/27 00:02:12;;;;;;;;;;;;;;;21.27;45.29;93499.69;10480204;28;2593;-57
2023/10/27 00:07:12;;;;;;;;;;;;;;;21.22;45.26;93494.63;10472052;28;2789;-57
2023/10/27 00:12:13;;;;;;;;;;;;;;;21.20;45.61;93492.31;10472501;28;2596;-57
2023/10/27 00:17:13;;;;;;;;;;;;;;;21.17;45.58;93484.28;10474920;28;2621;-56
2023/10/27 00:22:14;;;;;;;;;;;;;;;21.14;45.47;93493.66;10475641;28;2610;-56
2023/10/27 00:27:14;;;;;;;;;;;;;;;21.11;45.62;93483.75;10473726;28;2590;-57
2023/10/27 00:32:14;;;;;;;;;;;;;;;21.08;45.56;93468.63;10474615;28;2712;-57
2023/10/27 00:37:14;;;;;;;;;;;;;;;21.07;45.48;93467.09;10479267;28;2794;-56
2023/10/27 00:42:15;;;;;;;;;;;;;;;21.05;45.52;93470.06;10472984;28;2708;-56
2023/10/27 00:47:15;;;;;;;;;;;;;;;21.02;45.69;93468.06;10470448;28;2764;-55
2023/10/27 00:52:15;;;;;;;;;;;;;;;21.01;45.50;93473.63;10455190;28;5261;-56
2023/10/27 00:57:16;;;;;;;;;;;;;;;21.00;45.57;93475.50;10453965;28;2593;-57
2023/10/27 01:02:21;;;;;;;;;;;;;;;20.98;45.45;93469.78;10473925;28;2629;-57
2023/10/27 01:07:23;;;;;;;;;;;;;;;20.97;45.49;93480.66;10470840;28;3014;-57
2023/10/27 01:12:24;;;;;;;;;;;;;;;20.95;45.62;93485.50;10454060;28;2679;-57
2023/10/27 01:17:24;;;;;;;;;;;;;;;20.94;45.56;93495.25;10475690;28;2539;-57
2023/10/27 01:22:25;;;;;;;;;;;;;;;20.92;45.79;93497.44;10475701;28;2557;-57
2023/10/27 01:27:25;;;;;;;;;;;;;;;20.90;45.48;93493.59;10470168;28;2577;-55
2023/10/27 01:32:25;;;;;;;;;;;;;;;20.89;45.90;93503.38;10459702;28;2727;-57
2023/10/27 01:37:25;;;;;;;;;;;;;;;20.89;45.60;93492.09;10473552;28;2536;-55
2023/10/27 01:42:26;;;;;;;;;;;;;;;20.88;45.41;93493.16;10472129;28;2622;-56
2023/10/27 01:47:26;;;;;;;;;;;;;;;20.86;45.76;93490.88;10481357;28;2628;-57
2023/10/27 01:52:29;;;;;;;;;;;;;;;20.84;45.86;93495.69;10475719;28;5196;-56
2023/10/27 01:57:29;;;;;;;;;;;;;;;20.84;45.51;93505.44;10474499;28;2615;-57
2023/10/27 02:02:29;;;;;;;;;;;;;;;20.84;45.48;93521.25;10472514;28;2556;-57
2023/10/27 02:07:29;;;;;;;;;;;;;;;20.82;45.55;93524.22;10456875;28;2848;-55
2023/10/27 02:12:30;;;;;;;;;;;;;;;20.80;45.61;93536.94;10476762;28;2819;-57
2023/10/27 02:17:30;;;;;;;;;;;;;;;20.79;45.72;93529.38;10470111;28;2532;-57
2023/10/27 02:22:31;;;;;;;;;;;;;;;20.77;45.60;93526.31;10474674;28;2838;-56
2023/10/27 02:27:31;;;;;;;;;;;;;;;20.76;45.53;93530.78;10476573;28;2716;-57
2023/10/27 02:32:31;;;;;;;;;;;;;;;20.76;45.68;93520.25;10475139;28;2685;-57
2023/10/27 02:37:32;;;;;;;;;;;;;;;20.72;45.54;93511.50;10464175;28;2746;-56
2023/10/27 02:42:32;;;;;;;;;;;;;;;20.73;45.64;93520.16;10471243;28;2550;-56
2023/10/27 02:47:32;;;;;;;;;;;;;;;20.72;45.66;93519.38;10471858;28;3017;-57
2023/10/27 02:52:33;;;;;;;;;;;;;;;20.70;45.34;93516.31;10464053;28;5496;-57
2023/10/27 02:57:33;;;;;;;;;;;;;;;20.69;45.80;93519.28;10474185;28;2845;-57
2023/10/27 03:02:33;;;;;;;;;;;;;;;20.68;45.50;93515.09;10479631;28;2628;-57
2023/10/27 03:07:34;;;;;;;;;;;;;;;20.67;45.47;93513.56;10476603;28;2791;-57
2023/10/27 03:12:34;;;;;;;;;;;;;;;20.66;45.76;93525.97;10476884;28;2666;-57
2023/10/27 03:17:34;;;;;;;;;;;;;;;20.66;45.45;93528.59;10459042;28;2634;-57
2023/10/27 03:22:34;;;;;;;;;;;;;;;20.66;45.40;93538.34;10476767;28;2833;-57
2023/10/27 03:27:35;;;;;;;;;;;;;;;20.64;45.23;93548.44;10479980;28;2631;-57
2023/10/27 03:32:35;;;;;;;;;;;;;;;20.63;45.57;93545.03;10471977;28;2562;-57
2023/10/27 03:37:35;;;;;;;;;;;;;;;20.62;45.36;93551.41;10450406;28;2542;-58
2023/10/27 03:42:36;;;;;;;;;;;;;;;20.63;45.49;93544.28;10454116;28;2678;-57
2023/10/27 03:47:36;;;;;;;;;;;;;;;20.59;45.18;93541.50;10458380;28;2785;-56
2023/10/27 03:52:36;;;;;;;;;;;;;;;20.59;45.16;93546.00;10481046;28;5050;-57
2023/10/27 03:57:38;;;;;;;;;;;;;;;20.58;45.16;93539.97;10474859;28;2771;-57
2023/10/27 04:02:38;;;;;;;;;;;;;;;20.58;45.22;93539.22;10478257;28;2547;-57
2023/10/27 04:07:38;;;;;;;;;;;;;;;20.58;45.48;93537.34;10475460;28;2678;-56
2023/10/27 04:12:39;;;;;;;;;;;;;;;20.60;45.58;93537.03;10481209;28;2557;-57
2023/10/27 04:17:39;;;;;;;;;;;;;;;20.64;45.28;93528.16;10478950;28;2688;-56
2023/10/27 04:22:39;;;;;;;;;;;;;;;20.67;45.39;93522.22;10478847;28;2540;-54
2023/10/27 04:27:40;;;;;;;;;;;;;;;20.72;44.75;93545.72;10479377;28;2819;-57
2023/10/27 04:32:41;;;;;;;;;;;;;;;20.76;44.79;93548.44;10480271;28;2645;-57
2023/10/27 04:37:41;;;;;;;;;;;;;;;20.80;45.03;93544.84;10478822;28;2595;-57
2023/10/27 04:42:41;;;;;;;;;;;;;;;20.85;44.74;93534.09;10475139;28;2619;-56
2023/10/27 04:47:41;;;;;;;;;;;;;;;20.91;45.00;93532.03;10481733;28;5124;-56
2023/10/27 04:52:42;;;;;;;;;;;;;;;20.94;44.87;93534.75;10477889;28;2598;-57
2023/10/27 04:57:42;;;;;;;;;;;;;;;21.01;44.72;93534.22;10472076;28;2706;-57
2023/10/27 05:02:43;;;;;;;;;;;;;;;21.02;45.15;93523.38;10472185;28;2612;-56
2023/10/27 05:07:44;;;;;;;;;;;;;;;21.08;44.70;93521.31;10473806;28;2590;-57
2023/10/27 05:12:44;;;;;;;;;;;;;;;21.13;44.67;93523.72;10479284;28;2932;-57
2023/10/27 05:17:46;;;;;;;;;;;;;;;21.16;44.51;93509.13;10472997;28;2539;-57
2023/10/27 05:22:46;;;;;;;;;;;;;;;21.19;44.50;93511.06;10472631;28;2576;-56
2023/10/27 05:27:46;;;;;;;;;;;;;;;21.21;44.41;93514.16;10474130;28;2805;-57
2023/10/27 05:32:47;;;;;;;;;;;;;;;21.26;44.24;93516.56;10476563;28;2909;-57
2023/10/27 05:37:47;;;;;;;;;;;;;;;21.29;43.86;93521.19;10472411;28;2581;-57
2023/10/27 05:42:47;;;;;;;;;;;;;;;21.27;44.16;93526.78;10461801;28;2946;-57
2023/10/27 05:47:47;;;;;;;;;;;;;;;21.27;44.20;93544.47;10457701;28;5224;-57
2023/10/27 05:52:48;;;;;;;;;;;;;;;21.31;44.15;93553.25;10477908;28;2626;-57
2023/10/27 05:57:48;;;;;;;;;;;;;;;21.33;43.93;93558.97;10471802;28;2583;-55
2023/10/27 06:02:52;;;;;;;;;;;;;;;21.34;43.65;93557.84;10473718;28;2798;-57
2023/10/27 06:07:52;;;;;;;;;;;;;;;21.38;43.96;93583.22;10474543;28;2600;-55
2023/10/27 06:12:53;;;;;;;;;;;;;;;21.41;43.92;93595.72;10474267;28;3117;-57
2023/10/27 06:17:53;;;;;;;;;;;;;;;21.43;43.87;93595.41;10469351;28;2607;-57
2023/10/27 06:22:53;;;;;;;;;;;;;;;21.44;44.09;93594.31;10473658;28;2538;-56
2023/10/27 06:27:54;;;;;;;;;;;;;;;21.19;43.31;93590.13;10471257;28;2571;-57
2023/10/27 06:32:54;;;;;;;;;;;;;;;20.92;42.97;93591.47;10478069;28;2658;-56
2023/10/27 06:37:54;;;;;;;;;;;;;;;20.76;43.03;93596.63;10475477;28;2520;-58
2023/10/27 06:42:55;;;;;;;;;;;;;;;20.95;43.30;93591.63;10484404;28;2563;-57
2023/10/27 06:47:55;;;;;;;;;;;;;;;21.10;43.55;93584.19;10483938;28;5098;-58
2023/10/27 06:52:55;;;;;;;;;;;;;;;21.18;43.88;93599.91;10487579;28;1981;-57
2023/10/27 06:57:56;;;;;;;;;;;;;;;21.24;43.83;93597.81;10487242;28;1761;-58
2023/10/27 07:02:56;;;;;;;;;;;;;;;21.31;44.09;93593.53;10487784;28;1642;-57
2023/10/27 07:07:56;;;;;;;;;;;;;;;21.36;44.03;93587.28;10486513;28;1938;-55
2023/10/27 07:12:57;;;;;;;;;;;;;;;21.41;43.67;93589.69;10485318;28;2549;-57
2023/10/27 07:17:57;;;;;;;;;;;;;;;21.46;43.77;93594.75;10503880;28;1495;-57
2023/10/27 07:22:57;;;;;;;;;;;;;;;21.49;43.59;93609.91;10485674;28;1603;-57
2023/10/27 07:27:58;;;;;;;;;;;;;;;21.52;43.71;93610.00;10470748;28;1595;-57
2023/10/27 07:32:58;;;;;;;;;;;;;;;21.52;43.96;93610.00;10486078;28;1963;-57
2023/10/27 07:37:58;;;;;;;;;;;;;;;21.53;44.09;93616.06;10489022;28;1592;-58
2023/10/27 07:42:59;;;;;;;;;;;;;;;21.54;43.49;93612.31;10482594;28;1821;-58
2023/10/27 07:48:02;;;;;;;;;;;;;;;21.55;43.54;93613.84;10488868;28;5092;-55
2023/10/27 07:53:03;;;;;;;;;;;;;;;21.54;43.45;93612.31;10487072;28;1956;-57
2023/10/27 07:58:06;;;;;;;;;;;;;;;21.54;43.71;93617.56;10483750;28;2583;-58
2023/10/27 08:03:06;;;;;;;;;;;;;;;21.52;43.99;93620.56;10486588;28;1717;-58
2023/10/27 08:08:07;;;;;;;;;;;;;;;21.53;43.88;93616.06;10483435;28;1581;-57
2023/10/27 08:13:08;;;;;;;;;;;;;;;21.52;43.40;93619.78;10482055;28;1901;-55
2023/10/27 08:18:09;;;;;;;;;;;;;;;21.49;43.47;93631.78;10487770;28;1437;-56
2023/10/27 08:23:09;;;;;;;;;;;;;;;21.48;43.89;93634.72;10467002;28;1448;-57
2023/10/27 08:28:10;;;;;;;;;;;;;;;21.49;43.73;93646.81;10482651;28;1582;-57
2023/10/27 08:33:10;;;;;;;;;;;;;;;21.48;43.46;93650.53;10485026;28;1969;-56
2023/10/27 08:38:10;;;;;;;;;;;;;;;21.45;44.11;93664.38;10483351;28;1600;-57
2023/10/27 08:43:11;;;;;;;;;;;;;;;21.44;43.84;93678.66;10477242;28;2610;-56
2023/10/27 08:48:12;;;;;;;;;;;;;;;21.42;44.67;93696.66;10483034;28;5166;-56
2023/10/27 08:53:12;;;;;;;;;;;;;;;21.42;44.11;93704.56;10483165;28;1968;-56
2023/10/27 08:58:12;;;;;;;;;;;;;;;21.39;44.09;93707.88;10458972;28;1887;-56
2023/10/27 09:03:13;;;;;;;;;;;;;;;21.36;44.36;93717.19;10481908;28;1833;-56
2023/10/27 09:08:13;;;;;;;;;;;;;;;21.35;44.05;93728.06;10480502;28;1800;-57
2023/10/27 09:13:19;;;;;;;;;;;;;;;21.34;44.19;93735.19;10461898;28;1906;-57
2023/10/27 09:18:19;;;;;;;;;;;;;;;21.31;44.49;93745.63;10483275;28;1511;-57
2023/10/27 09:23:19;;;;;;;;;;;;;;;21.29;44.35;93745.94;10464086;28;1464;-56
2023/10/27 09:28:21;;;;;;;;;;;;;;;21.30;44.25;93759.88;10484767;28;2687;-55
2023/10/27 09:33:26;;;;;;;;;;;;;;;21.28;44.32;93752.31;10466406;28;1906;-56
2023/10/27 09:38:27;;;;;;;;;;;;;;;21.26;44.32;93759.00;10483732;28;1570;-55
2023/10/27 09:43:27;;;;;;;;;;;;;;;21.25;44.65;93757.44;10480200;28;1678;-56
2023/10/27 09:48:28;;;;;;;;;;;;;;;21.24;44.26;93772.50;10460593;28;5033;-56
2023/10/27 09:53:28;;;;;;;;;;;;;;;21.22;43.93;93769.41;10485201;28;1910;-56
2023/10/27 09:58:32;;;;;;;;;;;;;;;21.19;44.16;93770.06;10476413;28;1524;-56
2023/10/27 10:03:32;;;;;;;;;;;;;;;21.19;44.28;93767.41;10464594;28;1546;-55
2023/10/27 10:08:33;;;;;;;;;;;;;;;21.24;44.56;93787.53;10489444;28;1551;-56
2023/10/27 10:13:39;;;;;;;;;;;;;;;21.25;44.40;93771.38;10483890;28;2571;-57
2023/10/27 10:18:48;;;;;;;;;;;;;;;21.26;43.81;93774.81;10465597;28;2563;-57
2023/10/27 10:24:04;;;;;;;;;;;;;;;21.25;43.88;93783.78;10470998;28;2674;-56
2023/10/27 10:29:24;;;;;;;;;;;;;;;21.23;44.05;93775.44;10478392;28;2599;-55
2023/10/27 10:34:24;;;;;;;;;;;;;;;21.19;43.89;93772.69;10480110;28;2803;-55
2023/10/27 10:39:27;;;;;;;;;;;;;;;21.19;44.09;93777.97;10473878;28;2773;-56
2023/10/27 10:44:28;;;;;;;;;;;;;;;21.19;44.09;93787.72;10474797;28;2635;-55
2023/10/27 10:49:28;;;;;;;;;;;;;;;21.16;44.23;93775.22;10459641;28;2629;-52
2023/10/27 10:54:29;;;;;;;;;;;;;;;21.17;44.31;93787.28;10469049;28;2603;-55
2023/10/27 10:59:30;;;;;;;;;;;;;;;21.14;44.21;93787.94;10472248;28;2661;-57
2023/10/27 11:04:31;;;;;;;;;;;;;;;21.14;45.69;93803.75;10472732;28;2606;-57
2023/10/27 11:09:31;;;;;;;;;;;;;;;21.13;46.70;93796.91;10487191;28;2020;-57
2023/10/27 11:14:41;;;;;;;;;;;;;;;21.15;45.60;93795.50;10472025;28;1977;-54
2023/10/27 11:19:51;;;;;;;;;;;;;;;21.14;45.91;93798.47;10485125;28;1436;-53
2023/10/27 11:24:52;;;;;;;;;;;;;;;21.13;45.59;93787.16;10483713;28;1957;-57
2023/10/27 11:29:56;;;;;;;;;;;;;;;21.14;46.04;93798.47;10484243;28;2488;-55
2023/10/27 11:34:56;;;;;;;;;;;;;;;21.14;45.35;93798.47;10483022;28;1953;-55
2023/10/27 11:40:10;;;;;;;;;;;;;;;21.11;45.60;93793.84;10485486;28;2615;-57
2023/10/27 11:45:11;;;;;;;;;;;;;;;21.08;45.72;93786.59;10483706;28;1547;-57
2023/10/27 11:50:11;;;;;;;;;;;;;;;21.10;45.62;93782.56;10481833;28;5549;-56
2023/10/27 11:55:11;;;;;;;;;;;;;;;21.10;46.13;93794.94;10491038;28;1921;-55
2023/10/27 12:00:12;;;;;;;;;;;;;;;21.08;46.30;93789.22;10481245;28;1422;-56
2023/10/27 12:05:12;;;;;;;;;;;;;;;21.11;46.14;93799.09;10484410;28;1578;-54
2023/10/27 12:10:12;;;;;;;;;;;;;;;21.13;46.66;93796.91;10464837;28;1646;-53
2023/10/27 12:15:14;;;;;;;;;;;;;;;21.13;46.57;93795.06;10483727;28;1965;-56
2023/10/27 12:20:17;;;;;;;;;;;;;;;21.17;46.48;93806.50;10482773;28;1529;-55
2023/10/27 12:25:17;;;;;;;;;;;;;;;21.18;46.48;93804.63;10466940;28;2787;-54
2023/10/27 12:30:17;;;;;;;;;;;;;;;21.20;46.38;93818.25;10478217;28;1526;-56
2023/10/27 12:35:17;;;;;;;;;;;;;;;21.21;46.46;93819.78;10477178;28;1978;-55
2023/10/27 12:40:18;;;;;;;;;;;;;;;21.20;46.47;93826.16;10479997;28;4333;-56
2023/10/27 12:45:18;;;;;;;;;;;;;;;21.20;46.66;93845.38;10480879;28;1838;-57
2023/10/27 12:50:18;;;;;;;;;;;;;;;21.20;46.94;93863.81;10483844;28;5396;-55
2023/10/27 12:55:19;;;;;;;;;;;;;;;21.19;46.51;93869.41;10484900;28;2591;-57
2023/10/27 13:00:20;;;;;;;;;;;;;;;21.20;46.89;93881.50;10476058;28;1830;-56
2023/10/27 13:05:21;;;;;;;;;;;;;;;21.17;46.48;93882.13;10482764;28;2669;-56
2023/10/27 13:10:24;;;;;;;;;;;;;;;21.16;46.78;93891.91;10477088;28;2668;-53
2023/10/27 13:15:24;;;;;;;;;;;;;;;21.14;46.62;93890.69;10471504;28;2724;-56
2023/10/27 13:20:25;;;;;;;;;;;;;;;21.14;46.27;93903.84;10493595;28;2566;-55
2023/10/27 13:25:26;;;;;;;;;;;;;;;21.10;46.16;93892.41;10480579;28;1822;-55
2023/10/27 13:30:27;;;;;;;;;;;;;;;21.10;46.51;93897.69;10463785;28;2532;-55
2023/10/27 13:35:27;;;;;;;;;;;;;;;21.08;46.40;93911.19;10463256;28;1910;-56
2023/10/27 13:40:27;;;;;;;;;;;;;;;21.10;46.90;93910.84;10483703;28;1891;-57
2023/10/27 13:45:27;;;;;;;;;;;;;;;21.12;46.86;93913.94;10480767;28;1769;-57
2023/10/27 13:50:28;;;;;;;;;;;;;;;21.13;45.94;93912.84;10470940;28;5166;-55
2023/10/27 13:55:28;;;;;;;;;;;;;;;21.16;46.04;93914.84;10474297;28;2697;-57
2023/10/27 14:00:28;;;;;;;;;;;;;;;21.20;45.59;93907.84;10468808;28;2027;-55
2023/10/27 14:05:29;;;;;;;;;;;;;;;21.23;45.80;93912.47;10481827;28;1993;-56
2023/10/27 14:10:29;;;;;;;;;;;;;;;21.27;45.62;93910.75;10477049;28;1708;-56
2023/10/27 14:15:32;;;;;;;;;;;;;;;21.28;46.07;93915.69;10480144;28;1945;-55
2023/10/27 14:20:33;;;;;;;;;;;;;;;21.38;46.24;93932.97;10483347;28;1545;-54
2023/10/27 14:25:35;;;;;;;;;;;;;;;21.42;45.52;93939.16;10463517;28;1591;-56
2023/10/27 14:30:36;;;;;;;;;;;;;;;21.48;45.74;93945.75;10461235;28;1477;-54
2023/10/27 14:35:36;;;;;;;;;;;;;;;21.46;45.47;93954.00;10481353;28;1973;-52
2023/10/27 14:40:36;;;;;;;;;;;;;;;21.55;45.46;93946.81;10476256;28;2660;-56
2023/10/27 14:45:37;;;;;;;;;;;;;;;21.63;45.51;93947.81;10482163;28;1571;-56
2023/10/27 14:50:37;;;;;;;;;;;;;;;21.67;45.16;93946.09;10480187;28;5226;-54
2023/10/27 14:55:37;;;;;;;;;;;;;;;21.70;45.04;93954.09;10485474;28;1985;-56
2023/10/27 15:00:37;;;;;;;;;;;;;;;21.74;44.50;93949.72;10489081;28;1487;-57
2023/10/27 15:05:40;;;;;;;;;;;;;;;21.77;44.72;93956.22;10487441;28;1654;-55
2023/10/27 15:10:41;;;;;;;;;;;;;;;21.79;44.70;93961.97;10483223;28;1451;-56
2023/10/27 15:15:42;;;;;;;;;;;;;;;21.83;44.38;93954.97;10486235;28;1983;-55
2023/10/27 15:20:42;;;;;;;;;;;;;;;21.83;44.42;93963.66;10488004;28;2522;-56
2023/10/27 15:25:42;;;;;;;;;;;;;;;21.87;44.50;93953.22;10485456;28;1562;-55
2023/10/27 15:30:42;;;;;;;;;;;;;;;21.88;44.20;93966.06;10488767;28;1475;-57
2023/10/27 15:35:43;;;;;;;;;;;;;;;21.91;43.95;93974.47;10481657;28;1914;-57
2023/10/27 15:40:43;;;;;;;;;;;;;;;21.92;43.88;93976.78;10483676;28;1596;-56
2023/10/27 15:45:43;;;;;;;;;;;;;;;21.95;43.86;93985.91;10487439;28;1529;-57
2023/10/27 15:50:43;;;;;;;;;;;;;;;21.96;43.61;93995.34;10469483;28;5346;-57
2023/10/27 15:55:44;;;;;;;;;;;;;;;21.96;43.92;93996.13;10487160;28;1967;-54
2023/10/27 16:00:44;;;;;;;;;;;;;;;21.99;43.66;94003.38;10486362;28;1447;-56
2023/10/27 16:05:45;;;;;;;;;;;;;;;21.99;44.07;94003.38;10487613;28;1475;-57
2023/10/27 16:10:45;;;;;;;;;;;;;;;22.03;43.66;94006.16;10465619;28;1492;-55
2023/10/27 16:15:45;;;;;;;;;;;;;;;22.06;43.53;94014.19;10482292;28;1918;-56
2023/10/27 16:20:46;;;;;;;;;;;;;;;22.09;43.03;94021.47;10483860;28;2958;-56
2023/10/27 16:25:46;;;;;;;;;;;;;;;22.14;43.03;94021.28;10484566;28;1507;-56
2023/10/27 16:30:46;;;;;;;;;;;;;;;22.18;43.03;94022.16;10482984;28;1907;-54
2023/10/27 16:35:49;;;;;;;;;;;;;;;22.21;43.08;94032.09;10467600;28;2186;-54
2023/10/27 16:40:49;;;;;;;;;;;;;;;22.21;42.69;94021.53;10465342;28;1885;-55
2023/10/27 16:45:49;;;;;;;;;;;;;;;22.19;42.96;94029.00;10484379;28;1492;-54
2023/10/27 16:51:03;;;;;;;;;;;;;;;22.30;43.67;94040.69;10482863;28;5117;-56
2023/10/27 16:56:03;;;;;;;;;;;;;;;22.18;43.57;94047.78;10466614;28;1918;-57
2023/10/27 17:01:03;;;;;;;;;;;;;;;22.15;43.62;94059.00;10483645;28;1420;-57
2023/10/27 17:06:05;;;;;;;;;;;;;;;22.10;43.38;94056.53;10488380;28;1683;-56
2023/10/27 17:11:05;;;;;;;;;;;;;;;22.06;42.86;94059.06;10463713;28;2849;-56
2023/10/27 17:16:07;;;;;;;;;;;;;;;22.06;43.49;94074.88;10481700;28;1906;-55
2023/10/27 17:21:13;;;;;;;;;;;;;;;22.04;43.66;94074.44;10475046;28;1731;-57
2023/10/27 17:26:13;;;;;;;;;;;;;;;22.00;43.82;94076.19;10478705;28;1606;-55
2023/10/27 17:31:14;;;;;;;;;;;;;;;21.93;43.75;94083.81;10483483;28;1457;-56
2023/10/27 17:36:14;;;;;;;;;;;;;;;21.89;43.80;94082.91;10487099;28;1914;-56
2023/10/27 17:41:16;;;;;;;;;;;;;;;21.82;43.81;94083.44;10478655;28;2589;-55
2023/10/27 17:46:16;;;;;;;;;;;;;;;21.81;44.05;94081.09;10477118;28;2615;-55
2023/10/27 17:51:16;;;;;;;;;;;;;;;21.77;43.79;94074.91;10472557;28;5200;-56
2023/10/27 17:56:17;;;;;;;;;;;;;;;21.76;43.93;94091.84;10474830;28;2658;-56
2023/10/27 18:01:18;;;;;;;;;;;;;;;21.72;44.06;94083.03;10477895;28;2802;-56
2023/10/27 18:06:18;;;;;;;;;;;;;;;21.74;44.30;94086.13;10472535;28;2547;-55
2023/10/27 18:11:20;;;;;;;;;;;;;;;21.71;44.79;94082.25;10476819;28;2667;-55
2023/10/27 18:16:22;;;;;;;;;;;;;;;21.76;44.29;94086.56;10479752;28;2828;-55
2023/10/27 18:21:23;;;;;;;;;;;;;;;21.70;44.99;94093.88;10477931;28;2592;-55
2023/10/27 18:26:23;;;;;;;;;;;;;;;21.75;44.26;94098.19;10458083;28;2599;-56
2023/10/27 18:31:23;;;;;;;;;;;;;;;21.77;44.73;94103.94;10484358;28;2570;-55
2023/10/27 18:36:24;;;;;;;;;;;;;;;21.75;44.50;94108.75;10483031;28;2663;-55
2023/10/27 18:41:25;;;;;;;;;;;;;;;21.76;44.38;94107.66;10484628;28;2620;-56
2023/10/27 18:46:26;;;;;;;;;;;;;;;21.71;44.12;94102.56;10484520;28;2852;-54
2023/10/27 18:51:27;;;;;;;;;;;;;;;21.69;44.22;94110.03;10484214;28;5148;-57
2023/10/27 18:56:27;;;;;;;;;;;;;;;21.66;44.48;94116.72;10481560;28;2618;-56
2023/10/27 19:01:28;;;;;;;;;;;;;;;21.66;44.46;94121.97;10484031;28;2609;-57
2023/10/27 19:06:28;;;;;;;;;;;;;;;21.64;44.25;94112.84;10467181;28;2929;-55
2023/10/27 19:11:28;;;;;;;;;;;;;;;21.64;44.16;94120.75;10487968;28;2562;-57
2023/10/27 19:16:28;;;;;;;;;;;;;;;21.63;44.12;94124.50;10480565;28;2602;-56
2023/10/27 19:21:29;;;;;;;;;;;;;;;21.62;43.88;94128.97;10479245;28;2576;-56
2023/10/27 19:26:29;;;;;;;;;;;;;;;21.64;43.95;94126.03;10466174;28;2625;-57
2023/10/27 19:31:30;;;;;;;;;;;;;;;21.67;43.92;94128.03;10486918;28;2822;-56
2023/10/27 19:36:30;;;;;;;;;;;;;;;21.63;44.33;94135.03;10484843;28;2625;-55
2023/10/27 19:41:30;;;;;;;;;;;;;;;21.59;44.21;94145.47;10480873;28;2535;-54
2023/10/27 19:46:31;;;;;;;;;;;;;;;21.59;44.34;94149.94;10483148;28;2602;-56
2023/10/27 19:51:31;;;;;;;;;;;;;;;21.59;44.15;94155.22;10479352;28;5265;-56
2023/10/27 19:56:34;;;;;;;;;;;;;;;21.55;43.98;94162.22;10487965;28;2505;-55
2023/10/27 20:01:34;;;;;;;;;;;;;;;21.54;43.72;94158.81;10476304;28;2783;-54
2023/10/27 20:06:34;;;;;;;;;;;;;;;21.55;43.73;94156.94;10484543;28;2557;-55
2023/10/27 20:11:34;;;;;;;;;;;;;;;21.52;43.43;94160.19;10481647;28;2635;-57
2023/10/27 20:16:38;;;;;;;;;;;;;;;21.47;43.41;94149.84;10463220;28;2713;-56
2023/10/27 20:21:38;;;;;;;;;;;;;;;21.44;43.73;94151.25;10462884;28;2733;-54
2023/10/27 20:26:39;;;;;;;;;;;;;;;21.42;43.99;94156.06;10471011;28;2540;-56
2023/10/27 20:31:39;;;;;;;;;;;;;;;21.41;43.08;94148.47;10485307;28;2575;-56
2023/10/27 20:36:39;;;;;;;;;;;;;;;21.38;43.38;94144.63;10479477;28;2597;-56
2023/10/27 20:41:40;;;;;;;;;;;;;;;21.37;43.38;94147.56;10482214;28;2582;-56
2023/10/27 20:46:40;;;;;;;;;;;;;;;21.34;43.21;94145.56;10484589;28;2611;-55
2023/10/27 20:51:43;;;;;;;;;;;;;;;21.32;43.11;94137.97;10460838;28;5145;-54
2023/10/27 20:56:43;;;;;;;;;;;;;;;21.30;43.27;94134.09;10481101;28;2807;-56
2023/10/27 21:01:44;;;;;;;;;;;;;;;21.29;42.92;94143.09;10475686;28;2710;-56
2023/10/27 21:06:44;;;;;;;;;;;;;;;21.28;42.80;94138.91;10477062;28;2622;-57
2023/10/27 21:11:44;;;;;;;;;;;;;;;21.28;43.44;94141.56;10474175;28;2972;-55
2023/10/27 21:16:44;;;;;;;;;;;;;;;21.28;43.28;94136.28;10470635;28;2623;-55
2023/10/27 21:21:45;;;;;;;;;;;;;;;21.25;43.19;94152.72;10474820;28;2607;-56
2023/10/27 21:26:45;;;;;;;;;;;;;;;21.22;43.30;94145.44;10473780;28;2578;-56
2023/10/27 21:31:47;;;;;;;;;;;;;;;21.23;43.38;94150.41;10470130;28;2611;-57
2023/10/27 21:36:47;;;;;;;;;;;;;;;21.21;43.32;94142.03;10473952;28;2598;-54
2023/10/27 21:41:47;;;;;;;;;;;;;;;21.21;43.71;94141.25;10478987;28;2674;-57
2023/10/27 21:46:48;;;;;;;;;;;;;;;21.20;43.45;94142.34;10474858;28;2666;-54
2023/10/27 21:51:48;;;;;;;;;;;;;;;21.20;43.63;94139.72;10471812;28;5101;-55
2023/10/27 21:56:48;;;;;;;;;;;;;;;21.17;43.61;94140.34;10478226;28;2591;-56
2023/10/27 22:01:48;;;;;;;;;;;;;;;21.15;43.86;94135.41;10478892;28;2615;-57
2023/10/27 22:06:49;;;;;;;;;;;;;;;21.14;44.05;94146.25;10454793;28;2643;-57
2023/10/27 22:11:50;;;;;;;;;;;;;;;21.12;44.21;94143.94;10470609;28;2682;-57
2023/10/27 22:16:52;;;;;;;;;;;;;;;21.11;44.32;94139.75;10463945;28;2677;-57
2023/10/27 22:21:53;;;;;;;;;;;;;;;21.09;44.12;94149.81;10472974;28;2584;-57
2023/10/27 22:26:55;;;;;;;;;;;;;;;21.04;44.65;94148.13;10470838;28;2552;-56
2023/10/27 22:31:55;;;;;;;;;;;;;;;21.06;44.53;94155.75;10476928;28;2631;-57
2023/10/27 22:36:56;;;;;;;;;;;;;;;21.04;44.22;94153.41;10470450;28;2598;-58
2023/10/27 22:41:56;;;;;;;;;;;;;;;21.03;44.54;94156.34;10473749;28;2602;-56
2023/10/27 22:46:56;;;;;;;;;;;;;;;21.02;44.23;94147.66;10475146;28;2558;-56
2023/10/27 22:51:56;;;;;;;;;;;;;;;21.00;44.34;94156.94;10477428;28;5304;-57
2023/10/27 22:56:57;;;;;;;;;;;;;;;20.99;44.42;94160.69;10477404;28;2575;-58
2023/10/27 23:01:58;;;;;;;;;;;;;;;20.97;44.30;94179.44;10470173;28;2611;-56
2023/10/27 23:06:58;;;;;;;;;;;;;;;20.97;44.38;94186.56;10471374;28;2880;-57
2023/10/27 23:11:58;;;;;;;;;;;;;;;20.94;44.39;94195.84;10461690;28;2535;-57
2023/10/27 23:16:59;;;;;;;;;;;;;;;20.92;44.45;94198.03;10485492;28;2606;-57
2023/10/27 23:22:03;;;;;;;;;;;;;;;20.92;44.06;94207.78;10481337;28;2662;-55
2023/10/27 23:27:05;;;;;;;;;;;;;;;20.90;44.11;94216.00;10476564;28;2630;-56
2023/10/27 23:32:05;;;;;;;;;;;;;;;20.89;44.13;94229.50;10492472;28;2595;-55
2023/10/27 23:37:05;;;;;;;;;;;;;;;20.88;43.79;94260.31;10481138;28;2631;-55
2023/10/27 23:42:08;;;;;;;;;;;;;;;20.85;43.69;94250.41;10478867;28;2587;-57
2023/10/27 23:47:09;;;;;;;;;;;;;;;20.83;43.80;94268.38;10482964;28;2816;-57
2023/10/27 23:52:09;;;;;;;;;;;;;;;20.83;44.07;94278.13;10476275;28;2771;-57
2023/10/27 23:57:09;;;;;;;;;;;;;;;20.82;43.95;94281.84;10483434;28;2574;-55
